sensor_id;sensor_type;location;lat;lon;timestamp;P1;durP1;ratioP1;P2;durP2;ratioP2
57025;SDS011;43961;52.940;6.834;2023-04-03T00:00:40;3.50;;;2.65;;
57025;SDS011;43961;52.940;6.834;2023-04-03T00:03:06;2.92;;;2.42;;
57025;SDS011;43961;52.940;6.834;2023-04-03T00:05:32;4.75;;;2.75;;
57025;SDS011;43961;52.940;6.834;2023-04-03T00:07:58;4.43;;;2.92;;
57025;SDS011;43961;52.940;6.834;2023-04-03T00:10:23;5.82;;;2.20;;
57025;SDS011;43961;52.940;6.834;2023-04-03T00:12:49;6.82;;;2.33;;
57025;SDS011;43961;52.940;6.834;2023-04-03T00:15:15;3.35;;;2.33;;
57025;SDS011;43961;52.940;6.834;2023-04-03T00:17:41;6.85;;;2.90;;
57025;SDS011;43961;52.940;6.834;2023-04-03T00:20:06;4.13;;;2.50;;
57025;SDS011;43961;52.940;6.834;2023-04-03T00:22:32;3.63;;;2.20;;
57025;SDS011;43961;52.940;6.834;2023-04-03T00:24:58;4.18;;;2.60;;
57025;SDS011;43961;52.940;6.834;2023-04-03T00:27:24;3.63;;;2.42;;
57025;SDS011;43961;52.940;6.834;2023-04-03T00:29:50;4.10;;;2.03;;
57025;SDS011;43961;52.940;6.834;2023-04-03T00:32:15;8.77;;;2.60;;
57025;SDS011;43961;52.940;6.834;2023-04-03T00:34:41;7.13;;;2.60;;
57025;SDS011;43961;52.940;6.834;2023-04-03T00:37:06;3.63;;;2.60;;
57025;SDS011;43961;52.940;6.834;2023-04-03T00:39:32;4.25;;;2.30;;
57025;SDS011;43961;52.940;6.834;2023-04-03T00:41:58;2.70;;;2.22;;
57025;SDS011;43961;52.940;6.834;2023-04-03T00:46:58;3.70;;;2.33;;
57025;SDS011;43961;52.940;6.834;2023-04-03T00:49:25;3.80;;;2.40;;
57025;SDS011;43961;52.940;6.834;2023-04-03T00:51:51;4.75;;;2.78;;
57025;SDS011;43961;52.940;6.834;2023-04-03T00:54:17;5.45;;;2.65;;
57025;SDS011;43961;52.940;6.834;2023-04-03T00:56:43;7.00;;;2.95;;
57025;SDS011;43961;52.940;6.834;2023-04-03T00:59:12;3.15;;;2.80;;
57025;SDS011;43961;52.940;6.834;2023-04-03T01:01:40;8.82;;;2.90;;
57025;SDS011;43961;52.940;6.834;2023-04-03T01:04:24;3.33;;;2.33;;
57025;SDS011;43961;52.940;6.834;2023-04-03T01:06:56;4.53;;;2.97;;
57025;SDS011;43961;52.940;6.834;2023-04-03T01:09:26;5.70;;;3.28;;
57025;SDS011;43961;52.940;6.834;2023-04-03T01:11:53;3.97;;;2.45;;
57025;SDS011;43961;52.940;6.834;2023-04-03T01:14:18;7.47;;;2.88;;
57025;SDS011;43961;52.940;6.834;2023-04-03T01:16:53;5.70;;;2.88;;
57025;SDS011;43961;52.940;6.834;2023-04-03T01:19:19;6.93;;;2.50;;
57025;SDS011;43961;52.940;6.834;2023-04-03T01:24:31;3.85;;;2.85;;
57025;SDS011;43961;52.940;6.834;2023-04-03T01:27:00;4.90;;;3.30;;
57025;SDS011;43961;52.940;6.834;2023-04-03T01:29:27;9.43;;;2.95;;
57025;SDS011;43961;52.940;6.834;2023-04-03T01:31:54;5.07;;;2.90;;
57025;SDS011;43961;52.940;6.834;2023-04-03T01:34:22;4.57;;;2.55;;
57025;SDS011;43961;52.940;6.834;2023-04-03T01:36:48;7.15;;;3.45;;
57025;SDS011;43961;52.940;6.834;2023-04-03T01:39:15;3.45;;;2.60;;
57025;SDS011;43961;52.940;6.834;2023-04-03T01:41:42;5.20;;;3.33;;
57025;SDS011;43961;52.940;6.834;2023-04-03T01:44:08;4.90;;;2.75;;
57025;SDS011;43961;52.940;6.834;2023-04-03T01:46:33;5.30;;;3.15;;
57025;SDS011;43961;52.940;6.834;2023-04-03T01:49:00;4.63;;;2.78;;
57025;SDS011;43961;52.940;6.834;2023-04-03T01:51:26;6.55;;;3.47;;
57025;SDS011;43961;52.940;6.834;2023-04-03T01:53:52;4.00;;;2.88;;
57025;SDS011;43961;52.940;6.834;2023-04-03T01:56:18;5.63;;;2.42;;
57025;SDS011;43961;52.940;6.834;2023-04-03T01:58:43;4.03;;;3.33;;
57025;SDS011;43961;52.940;6.834;2023-04-03T02:01:09;7.05;;;3.15;;
57025;SDS011;43961;52.940;6.834;2023-04-03T02:03:35;4.03;;;2.63;;
57025;SDS011;43961;52.940;6.834;2023-04-03T02:06:00;7.18;;;3.63;;
57025;SDS011;43961;52.940;6.834;2023-04-03T02:08:26;5.93;;;2.80;;
57025;SDS011;43961;52.940;6.834;2023-04-03T02:10:52;10.68;;;2.85;;
57025;SDS011;43961;52.940;6.834;2023-04-03T02:13:18;9.48;;;3.30;;
57025;SDS011;43961;52.940;6.834;2023-04-03T02:15:44;4.25;;;2.92;;
57025;SDS011;43961;52.940;6.834;2023-04-03T02:18:10;9.35;;;4.35;;
57025;SDS011;43961;52.940;6.834;2023-04-03T02:20:36;6.70;;;3.72;;
57025;SDS011;43961;52.940;6.834;2023-04-03T02:23:02;8.35;;;4.10;;
57025;SDS011;43961;52.940;6.834;2023-04-03T02:25:29;10.10;;;4.05;;
57025;SDS011;43961;52.940;6.834;2023-04-03T02:27:56;5.82;;;3.70;;
57025;SDS011;43961;52.940;6.834;2023-04-03T02:30:21;6.82;;;3.10;;
57025;SDS011;43961;52.940;6.834;2023-04-03T02:32:47;3.60;;;3.20;;
57025;SDS011;43961;52.940;6.834;2023-04-03T02:35:13;7.40;;;2.95;;
57025;SDS011;43961;52.940;6.834;2023-04-03T02:37:38;11.82;;;3.70;;
57025;SDS011;43961;52.940;6.834;2023-04-03T02:40:04;5.35;;;3.10;;
57025;SDS011;43961;52.940;6.834;2023-04-03T02:42:31;10.73;;;3.05;;
57025;SDS011;43961;52.940;6.834;2023-04-03T02:44:57;4.53;;;2.70;;
57025;SDS011;43961;52.940;6.834;2023-04-03T02:47:23;5.03;;;3.10;;
57025;SDS011;43961;52.940;6.834;2023-04-03T02:49:48;3.95;;;2.83;;
57025;SDS011;43961;52.940;6.834;2023-04-03T02:52:14;7.32;;;3.72;;
57025;SDS011;43961;52.940;6.834;2023-04-03T02:54:40;9.68;;;3.30;;
57025;SDS011;43961;52.940;6.834;2023-04-03T02:57:06;7.47;;;2.70;;
57025;SDS011;43961;52.940;6.834;2023-04-03T02:59:35;5.53;;;3.25;;
57025;SDS011;43961;52.940;6.834;2023-04-03T03:02:01;4.60;;;3.10;;
57025;SDS011;43961;52.940;6.834;2023-04-03T03:04:27;6.88;;;3.58;;
57025;SDS011;43961;52.940;6.834;2023-04-03T03:06:52;4.88;;;3.55;;
57025;SDS011;43961;52.940;6.834;2023-04-03T03:09:18;3.85;;;2.70;;
57025;SDS011;43961;52.940;6.834;2023-04-03T03:11:44;4.55;;;2.78;;
57025;SDS011;43961;52.940;6.834;2023-04-03T03:14:12;5.57;;;2.78;;
57025;SDS011;43961;52.940;6.834;2023-04-03T03:16:38;8.30;;;3.33;;
57025;SDS011;43961;52.940;6.834;2023-04-03T03:19:04;3.80;;;2.63;;
57025;SDS011;43961;52.940;6.834;2023-04-03T03:21:32;5.05;;;3.15;;
57025;SDS011;43961;52.940;6.834;2023-04-03T03:23:58;7.78;;;3.53;;
57025;SDS011;43961;52.940;6.834;2023-04-03T03:26:24;7.30;;;3.50;;
57025;SDS011;43961;52.940;6.834;2023-04-03T03:28:50;6.78;;;3.75;;
57025;SDS011;43961;52.940;6.834;2023-04-03T03:31:15;7.13;;;3.83;;
57025;SDS011;43961;52.940;6.834;2023-04-03T03:33:41;6.25;;;3.88;;
57025;SDS011;43961;52.940;6.834;2023-04-03T03:36:07;7.72;;;4.45;;
57025;SDS011;43961;52.940;6.834;2023-04-03T03:38:33;6.70;;;4.07;;
57025;SDS011;43961;52.940;6.834;2023-04-03T03:40:58;6.82;;;4.13;;
57025;SDS011;43961;52.940;6.834;2023-04-03T03:43:24;7.90;;;3.78;;
57025;SDS011;43961;52.940;6.834;2023-04-03T03:45:51;7.95;;;4.35;;
57025;SDS011;43961;52.940;6.834;2023-04-03T03:48:17;12.00;;;5.15;;
57025;SDS011;43961;52.940;6.834;2023-04-03T03:50:43;7.82;;;4.10;;
57025;SDS011;43961;52.940;6.834;2023-04-03T03:53:09;12.60;;;4.72;;
57025;SDS011;43961;52.940;6.834;2023-04-03T03:55:35;9.32;;;4.85;;
57025;SDS011;43961;52.940;6.834;2023-04-03T03:58:01;12.73;;;4.70;;
57025;SDS011;43961;52.940;6.834;2023-04-03T04:00:27;8.13;;;5.35;;
57025;SDS011;43961;52.940;6.834;2023-04-03T04:02:52;10.07;;;5.38;;
57025;SDS011;43961;52.940;6.834;2023-04-03T04:05:18;9.68;;;5.35;;
57025;SDS011;43961;52.940;6.834;2023-04-03T04:07:44;9.25;;;5.18;;
57025;SDS011;43961;52.940;6.834;2023-04-03T04:10:10;14.07;;;5.30;;
57025;SDS011;43961;52.940;6.834;2023-04-03T04:12:37;11.00;;;5.97;;
57025;SDS011;43961;52.940;6.834;2023-04-03T04:15:03;11.80;;;6.38;;
57025;SDS011;43961;52.940;6.834;2023-04-03T04:17:29;8.10;;;5.20;;
57025;SDS011;43961;52.940;6.834;2023-04-03T04:19:54;9.10;;;5.70;;
57025;SDS011;43961;52.940;6.834;2023-04-03T04:22:20;12.00;;;6.60;;
57025;SDS011;43961;52.940;6.834;2023-04-03T04:24:46;14.18;;;5.95;;
57025;SDS011;43961;52.940;6.834;2023-04-03T04:27:11;10.57;;;6.63;;
57025;SDS011;43961;52.940;6.834;2023-04-03T04:29:37;7.80;;;5.97;;
57025;SDS011;43961;52.940;6.834;2023-04-03T04:32:03;10.13;;;6.10;;
57025;SDS011;43961;52.940;6.834;2023-04-03T04:34:29;13.02;;;6.50;;
57025;SDS011;43961;52.940;6.834;2023-04-03T04:36:55;8.70;;;6.10;;
57025;SDS011;43961;52.940;6.834;2023-04-03T04:39:20;19.65;;;6.70;;
57025;SDS011;43961;52.940;6.834;2023-04-03T04:41:47;12.18;;;7.60;;
57025;SDS011;43961;52.940;6.834;2023-04-03T04:44:13;14.52;;;7.03;;
57025;SDS011;43961;52.940;6.834;2023-04-03T04:46:38;10.75;;;7.13;;
57025;SDS011;43961;52.940;6.834;2023-04-03T04:49:04;12.10;;;7.10;;
57025;SDS011;43961;52.940;6.834;2023-04-03T04:51:30;17.58;;;7.85;;
57025;SDS011;43961;52.940;6.834;2023-04-03T04:53:56;9.90;;;6.63;;
57025;SDS011;43961;52.940;6.834;2023-04-03T04:56:22;16.38;;;7.40;;
57025;SDS011;43961;52.940;6.834;2023-04-03T04:58:47;12.55;;;7.57;;
57025;SDS011;43961;52.940;6.834;2023-04-03T05:01:13;8.95;;;6.85;;
57025;SDS011;43961;52.940;6.834;2023-04-03T05:03:39;13.45;;;7.13;;
57025;SDS011;43961;52.940;6.834;2023-04-03T05:06:05;10.70;;;6.97;;
57025;SDS011;43961;52.940;6.834;2023-04-03T05:08:31;8.18;;;6.93;;
57025;SDS011;43961;52.940;6.834;2023-04-03T05:10:56;12.07;;;7.20;;
57025;SDS011;43961;52.940;6.834;2023-04-03T05:13:22;13.63;;;7.80;;
57025;SDS011;43961;52.940;6.834;2023-04-03T05:15:48;13.35;;;7.53;;
57025;SDS011;43961;52.940;6.834;2023-04-03T05:18:13;14.65;;;7.65;;
57025;SDS011;43961;52.940;6.834;2023-04-03T05:20:40;9.65;;;6.60;;
57025;SDS011;43961;52.940;6.834;2023-04-03T05:23:06;11.65;;;7.20;;
57025;SDS011;43961;52.940;6.834;2023-04-03T05:25:32;10.80;;;7.53;;
57025;SDS011;43961;52.940;6.834;2023-04-03T05:27:57;9.15;;;7.07;;
57025;SDS011;43961;52.940;6.834;2023-04-03T05:30:23;15.18;;;7.93;;
57025;SDS011;43961;52.940;6.834;2023-04-03T05:32:49;11.52;;;8.02;;
57025;SDS011;43961;52.940;6.834;2023-04-03T05:35:15;12.93;;;7.70;;
57025;SDS011;43961;52.940;6.834;2023-04-03T05:37:41;10.45;;;6.85;;
57025;SDS011;43961;52.940;6.834;2023-04-03T05:40:07;10.45;;;6.75;;
57025;SDS011;43961;52.940;6.834;2023-04-03T05:42:33;11.18;;;7.22;;
57025;SDS011;43961;52.940;6.834;2023-04-03T05:45:00;10.68;;;7.07;;
57025;SDS011;43961;52.940;6.834;2023-04-03T05:47:26;7.40;;;6.53;;
57025;SDS011;43961;52.940;6.834;2023-04-03T05:49:52;11.15;;;8.10;;
57025;SDS011;43961;52.940;6.834;2023-04-03T05:52:20;7.63;;;6.47;;
57025;SDS011;43961;52.940;6.834;2023-04-03T05:54:48;11.05;;;7.13;;
57025;SDS011;43961;52.940;6.834;2023-04-03T05:57:15;13.45;;;7.68;;
57025;SDS011;43961;52.940;6.834;2023-04-03T05:59:41;12.43;;;8.05;;
57025;SDS011;43961;52.940;6.834;2023-04-03T06:02:10;8.95;;;7.53;;
57025;SDS011;43961;52.940;6.834;2023-04-03T06:04:37;12.55;;;8.27;;
57025;SDS011;43961;52.940;6.834;2023-04-03T06:07:03;15.77;;;8.13;;
57025;SDS011;43961;52.940;6.834;2023-04-03T06:09:30;14.68;;;8.35;;
57025;SDS011;43961;52.940;6.834;2023-04-03T06:11:56;15.23;;;8.45;;
57025;SDS011;43961;52.940;6.834;2023-04-03T06:14:25;10.52;;;8.10;;
57025;SDS011;43961;52.940;6.834;2023-04-03T06:16:52;12.38;;;8.88;;
57025;SDS011;43961;52.940;6.834;2023-04-03T06:19:19;16.90;;;9.40;;
57025;SDS011;43961;52.940;6.834;2023-04-03T06:21:45;17.88;;;9.93;;
57025;SDS011;43961;52.940;6.834;2023-04-03T06:24:12;9.55;;;8.40;;
57025;SDS011;43961;52.940;6.834;2023-04-03T06:26:40;12.00;;;8.32;;
57025;SDS011;43961;52.940;6.834;2023-04-03T06:29:06;11.52;;;9.43;;
57025;SDS011;43961;52.940;6.834;2023-04-03T06:31:32;12.73;;;7.72;;
57025;SDS011;43961;52.940;6.834;2023-04-03T06:33:58;18.35;;;10.10;;
57025;SDS011;43961;52.940;6.834;2023-04-03T06:36:24;18.13;;;10.02;;
57025;SDS011;43961;52.940;6.834;2023-04-03T06:38:50;16.60;;;9.07;;
57025;SDS011;43961;52.940;6.834;2023-04-03T06:41:16;12.80;;;9.75;;
57025;SDS011;43961;52.940;6.834;2023-04-03T06:43:42;14.57;;;9.10;;
57025;SDS011;43961;52.940;6.834;2023-04-03T06:46:16;16.95;;;7.95;;
57025;SDS011;43961;52.940;6.834;2023-04-03T06:48:43;8.07;;;7.10;;
57025;SDS011;43961;52.940;6.834;2023-04-03T06:51:30;12.73;;;7.57;;
57025;SDS011;43961;52.940;6.834;2023-04-03T06:53:56;14.43;;;7.63;;
57025;SDS011;43961;52.940;6.834;2023-04-03T06:56:23;11.52;;;7.65;;
57025;SDS011;43961;52.940;6.834;2023-04-03T06:58:50;8.75;;;7.28;;
57025;SDS011;43961;52.940;6.834;2023-04-03T07:01:19;15.77;;;7.53;;
57025;SDS011;43961;52.940;6.834;2023-04-03T07:03:45;13.35;;;7.55;;
57025;SDS011;43961;52.940;6.834;2023-04-03T07:06:13;12.38;;;7.07;;
57025;SDS011;43961;52.940;6.834;2023-04-03T07:08:40;13.77;;;7.38;;
57025;SDS011;43961;52.940;6.834;2023-04-03T07:11:07;10.98;;;7.03;;
57025;SDS011;43961;52.940;6.834;2023-04-03T07:13:37;13.38;;;7.13;;
57025;SDS011;43961;52.940;6.834;2023-04-03T07:16:04;9.93;;;6.32;;
57025;SDS011;43961;52.940;6.834;2023-04-03T07:18:32;11.45;;;6.65;;
57025;SDS011;43961;52.940;6.834;2023-04-03T07:20:59;15.90;;;5.50;;
57025;SDS011;43961;52.940;6.834;2023-04-03T07:23:25;9.63;;;6.65;;
57025;SDS011;43961;52.940;6.834;2023-04-03T07:25:51;9.07;;;5.40;;
57025;SDS011;43961;52.940;6.834;2023-04-03T07:28:19;10.95;;;6.60;;
57025;SDS011;43961;52.940;6.834;2023-04-03T07:31:10;10.63;;;5.85;;
57025;SDS011;43961;52.940;6.834;2023-04-03T07:33:37;9.15;;;5.70;;
57025;SDS011;43961;52.940;6.834;2023-04-03T07:36:05;9.05;;;4.85;;
57025;SDS011;43961;52.940;6.834;2023-04-03T07:40:58;9.65;;;4.97;;
57025;SDS011;43961;52.940;6.834;2023-04-03T07:43:24;6.53;;;4.00;;
57025;SDS011;43961;52.940;6.834;2023-04-03T07:45:50;9.35;;;4.60;;
57025;SDS011;43961;52.940;6.834;2023-04-03T07:48:25;6.85;;;4.28;;
57025;SDS011;43961;52.940;6.834;2023-04-03T07:50:51;8.95;;;4.22;;
57025;SDS011;43961;52.940;6.834;2023-04-03T07:53:17;6.28;;;4.40;;
57025;SDS011;43961;52.940;6.834;2023-04-03T07:55:45;8.57;;;4.13;;
57025;SDS011;43961;52.940;6.834;2023-04-03T07:58:13;8.02;;;3.60;;
57025;SDS011;43961;52.940;6.834;2023-04-03T08:00:44;12.60;;;4.55;;
57025;SDS011;43961;52.940;6.834;2023-04-03T08:03:10;9.80;;;4.70;;
57025;SDS011;43961;52.940;6.834;2023-04-03T08:05:37;4.75;;;4.15;;
57025;SDS011;43961;52.940;6.834;2023-04-03T08:08:04;15.98;;;4.22;;
57025;SDS011;43961;52.940;6.834;2023-04-03T08:10:30;8.43;;;4.03;;
57025;SDS011;43961;52.940;6.834;2023-04-03T08:12:56;4.25;;;3.28;;
57025;SDS011;43961;52.940;6.834;2023-04-03T08:15:22;23.63;;;4.93;;
57025;SDS011;43961;52.940;6.834;2023-04-03T08:17:48;6.97;;;3.78;;
57025;SDS011;43961;52.940;6.834;2023-04-03T08:20:14;7.78;;;4.90;;
57025;SDS011;43961;52.940;6.834;2023-04-03T08:22:40;6.10;;;4.40;;
57025;SDS011;43961;52.940;6.834;2023-04-03T08:25:05;11.75;;;4.15;;
57025;SDS011;43961;52.940;6.834;2023-04-03T08:27:31;13.23;;;3.85;;
57025;SDS011;43961;52.940;6.834;2023-04-03T08:29:57;5.07;;;3.42;;
57025;SDS011;43961;52.940;6.834;2023-04-03T08:32:23;31.52;;;3.95;;
57025;SDS011;43961;52.940;6.834;2023-04-03T08:34:49;7.40;;;4.68;;
57025;SDS011;43961;52.940;6.834;2023-04-03T08:37:15;9.90;;;4.32;;
57025;SDS011;43961;52.940;6.834;2023-04-03T08:39:41;5.45;;;3.80;;
57025;SDS011;43961;52.940;6.834;2023-04-03T08:42:14;7.30;;;3.08;;
57025;SDS011;43961;52.940;6.834;2023-04-03T08:45:01;4.75;;;2.88;;
57025;SDS011;43961;52.940;6.834;2023-04-03T08:50:17;5.43;;;3.28;;
57025;SDS011;43961;52.940;6.834;2023-04-03T08:52:50;7.18;;;2.75;;
57025;SDS011;43961;52.940;6.834;2023-04-03T08:55:34;3.33;;;2.70;;
57025;SDS011;43961;52.940;6.834;2023-04-03T08:58:06;4.70;;;2.75;;
57025;SDS011;43961;52.940;6.834;2023-04-03T09:00:47;5.47;;;2.47;;
57025;SDS011;43961;52.940;6.834;2023-04-03T09:03:41;8.82;;;3.40;;
57025;SDS011;43961;52.940;6.834;2023-04-03T09:06:20;5.88;;;3.30;;
57025;SDS011;43961;52.940;6.834;2023-04-03T09:14:32;5.53;;;3.25;;
57025;SDS011;43961;52.940;6.834;2023-04-03T09:19:43;5.35;;;3.03;;
57025;SDS011;43961;52.940;6.834;2023-04-03T09:22:31;10.80;;;3.72;;
57025;SDS011;43961;52.940;6.834;2023-04-03T09:25:13;8.02;;;2.78;;
57025;SDS011;43961;52.940;6.834;2023-04-03T09:27:40;6.47;;;2.17;;
57025;SDS011;43961;52.940;6.834;2023-04-03T09:30:11;3.33;;;2.45;;
57025;SDS011;43961;52.940;6.834;2023-04-03T09:32:39;3.00;;;2.10;;
57025;SDS011;43961;52.940;6.834;2023-04-03T09:40:38;6.18;;;2.72;;
57025;SDS011;43961;52.940;6.834;2023-04-03T09:43:25;5.10;;;2.30;;
57025;SDS011;43961;52.940;6.834;2023-04-03T09:45:53;4.68;;;2.20;;
57025;SDS011;43961;52.940;6.834;2023-04-03T09:48:24;7.03;;;2.42;;
57025;SDS011;43961;52.940;6.834;2023-04-03T09:53:29;7.82;;;2.13;;
57025;SDS011;43961;52.940;6.834;2023-04-03T09:55:58;9.80;;;2.20;;
57025;SDS011;43961;52.940;6.834;2023-04-03T09:58:26;8.23;;;2.47;;
57025;SDS011;43961;52.940;6.834;2023-04-03T10:00:55;3.30;;;1.95;;
57025;SDS011;43961;52.940;6.834;2023-04-03T10:05:57;5.00;;;1.98;;
57025;SDS011;43961;52.940;6.834;2023-04-03T10:13:55;5.60;;;2.10;;
57025;SDS011;43961;52.940;6.834;2023-04-03T10:16:47;4.15;;;2.28;;
57025;SDS011;43961;52.940;6.834;2023-04-03T10:27:42;5.30;;;2.30;;
57025;SDS011;43961;52.940;6.834;2023-04-03T10:39:14;4.85;;;3.10;;
57025;SDS011;43961;52.940;6.834;2023-04-03T10:49:51;8.32;;;2.97;;
57025;SDS011;43961;52.940;6.834;2023-04-03T10:55:37;6.72;;;2.85;;
57025;SDS011;43961;52.940;6.834;2023-04-03T10:58:29;4.90;;;2.05;;
57025;SDS011;43961;52.940;6.834;2023-04-03T11:01:00;5.00;;;2.53;;
57025;SDS011;43961;52.940;6.834;2023-04-03T11:03:35;5.88;;;2.55;;
57025;SDS011;43961;52.940;6.834;2023-04-03T11:06:06;2.95;;;2.33;;
57025;SDS011;43961;52.940;6.834;2023-04-03T11:11:17;2.63;;;2.10;;
57025;SDS011;43961;52.940;6.834;2023-04-03T11:13:52;8.00;;;2.25;;
57025;SDS011;43961;52.940;6.834;2023-04-03T11:16:28;5.00;;;2.45;;
57025;SDS011;43961;52.940;6.834;2023-04-03T11:21:41;5.00;;;2.20;;
57025;SDS011;43961;52.940;6.834;2023-04-03T11:24:16;3.47;;;2.10;;
57025;SDS011;43961;52.940;6.834;2023-04-03T11:26:47;4.07;;;2.15;;
57025;SDS011;43961;52.940;6.834;2023-04-03T11:29:17;3.83;;;2.05;;
57025;SDS011;43961;52.940;6.834;2023-04-03T11:34:33;11.18;;;2.83;;
57025;SDS011;43961;52.940;6.834;2023-04-03T11:37:39;4.80;;;2.70;;
57025;SDS011;43961;52.940;6.834;2023-04-03T11:40:06;3.17;;;2.45;;
57025;SDS011;43961;52.940;6.834;2023-04-03T11:42:55;3.75;;;2.35;;
57025;SDS011;43961;52.940;6.834;2023-04-03T11:45:32;6.95;;;2.67;;
57025;SDS011;43961;52.940;6.834;2023-04-03T11:50:53;3.63;;;2.50;;
57025;SDS011;43961;52.940;6.834;2023-04-03T11:53:34;8.70;;;2.90;;
57025;SDS011;43961;52.940;6.834;2023-04-03T11:56:35;5.95;;;2.92;;
57025;SDS011;43961;52.940;6.834;2023-04-03T12:04:16;8.80;;;2.40;;
57025;SDS011;43961;52.940;6.834;2023-04-03T12:09:25;3.35;;;2.35;;
57025;SDS011;43961;52.940;6.834;2023-04-03T12:11:56;5.15;;;2.72;;
57025;SDS011;43961;52.940;6.834;2023-04-03T12:14:27;6.47;;;2.83;;
57025;SDS011;43961;52.940;6.834;2023-04-03T12:16:54;6.75;;;2.53;;
57025;SDS011;43961;52.940;6.834;2023-04-03T12:19:38;3.25;;;2.72;;
57025;SDS011;43961;52.940;6.834;2023-04-03T12:22:11;3.27;;;1.90;;
57025;SDS011;43961;52.940;6.834;2023-04-03T12:24:39;4.35;;;2.50;;
57025;SDS011;43961;52.940;6.834;2023-04-03T12:27:17;9.88;;;3.58;;
57025;SDS011;43961;52.940;6.834;2023-04-03T12:29:55;3.83;;;2.60;;
57025;SDS011;43961;52.940;6.834;2023-04-03T12:40:21;2.37;;;2.17;;
57025;SDS011;43961;52.940;6.834;2023-04-03T12:48:37;4.13;;;2.80;;
57025;SDS011;43961;52.940;6.834;2023-04-03T12:51:16;5.32;;;3.00;;
57025;SDS011;43961;52.940;6.834;2023-04-03T12:53:45;3.47;;;2.15;;
57025;SDS011;43961;52.940;6.834;2023-04-03T12:58:54;4.30;;;2.63;;
57025;SDS011;43961;52.940;6.834;2023-04-03T13:01:37;3.60;;;2.80;;
57025;SDS011;43961;52.940;6.834;2023-04-03T13:04:03;2.60;;;2.28;;
57025;SDS011;43961;52.940;6.834;2023-04-03T13:06:39;6.25;;;2.75;;
57025;SDS011;43961;52.940;6.834;2023-04-03T13:09:18;5.75;;;2.50;;
57025;SDS011;43961;52.940;6.834;2023-04-03T13:11:46;4.63;;;3.22;;
57025;SDS011;43961;52.940;6.834;2023-04-03T13:14:23;10.63;;;4.25;;
57025;SDS011;43961;52.940;6.834;2023-04-03T13:16:57;8.98;;;3.28;;
57025;SDS011;43961;52.940;6.834;2023-04-03T13:19:39;4.13;;;3.05;;
57025;SDS011;43961;52.940;6.834;2023-04-03T13:25:09;8.85;;;4.20;;
57025;SDS011;43961;52.940;6.834;2023-04-03T13:27:38;5.72;;;3.17;;
57025;SDS011;43961;52.940;6.834;2023-04-03T13:30:17;4.80;;;2.95;;
57025;SDS011;43961;52.940;6.834;2023-04-03T13:32:48;4.32;;;3.22;;
57025;SDS011;43961;52.940;6.834;2023-04-03T13:37:59;5.35;;;3.40;;
57025;SDS011;43961;52.940;6.834;2023-04-03T13:40:28;4.05;;;3.10;;
57025;SDS011;43961;52.940;6.834;2023-04-03T13:43:02;6.80;;;3.45;;
57025;SDS011;43961;52.940;6.834;2023-04-03T13:45:30;6.28;;;3.63;;
57025;SDS011;43961;52.940;6.834;2023-04-03T13:51:16;4.07;;;3.13;;
57025;SDS011;43961;52.940;6.834;2023-04-03T13:53:52;4.68;;;3.65;;
57025;SDS011;43961;52.940;6.834;2023-04-03T13:56:31;7.32;;;4.13;;
57025;SDS011;43961;52.940;6.834;2023-04-03T14:01:49;5.20;;;3.53;;
57025;SDS011;43961;52.940;6.834;2023-04-03T14:04:29;5.63;;;3.20;;
57025;SDS011;43961;52.940;6.834;2023-04-03T14:07:11;6.22;;;3.25;;
57025;SDS011;43961;52.940;6.834;2023-04-03T14:09:37;5.63;;;3.60;;
57025;SDS011;43961;52.940;6.834;2023-04-03T14:12:21;6.55;;;3.03;;
57025;SDS011;43961;52.940;6.834;2023-04-03T14:14:54;7.07;;;3.40;;
57025;SDS011;43961;52.940;6.834;2023-04-03T14:17:23;6.03;;;2.92;;
57025;SDS011;43961;52.940;6.834;2023-04-03T14:19:50;3.45;;;2.50;;
57025;SDS011;43961;52.940;6.834;2023-04-03T14:22:18;4.70;;;3.50;;
57025;SDS011;43961;52.940;6.834;2023-04-03T14:24:47;5.80;;;2.85;;
57025;SDS011;43961;52.940;6.834;2023-04-03T14:27:26;5.85;;;3.42;;
57025;SDS011;43961;52.940;6.834;2023-04-03T14:29:54;7.88;;;3.17;;
57025;SDS011;43961;52.940;6.834;2023-04-03T14:32:22;7.00;;;3.80;;
57025;SDS011;43961;52.940;6.834;2023-04-03T14:34:50;3.60;;;2.85;;
57025;SDS011;43961;52.940;6.834;2023-04-03T14:37:18;5.90;;;3.13;;
57025;SDS011;43961;52.940;6.834;2023-04-03T14:39:48;7.35;;;3.15;;
57025;SDS011;43961;52.940;6.834;2023-04-03T14:42:16;7.47;;;3.70;;
57025;SDS011;43961;52.940;6.834;2023-04-03T14:44:44;3.13;;;2.65;;
57025;SDS011;43961;52.940;6.834;2023-04-03T14:47:11;8.68;;;2.85;;
57025;SDS011;43961;52.940;6.834;2023-04-03T14:49:38;6.10;;;3.25;;
57025;SDS011;43961;52.940;6.834;2023-04-03T14:52:05;5.50;;;2.85;;
57025;SDS011;43961;52.940;6.834;2023-04-03T14:54:31;5.40;;;3.13;;
57025;SDS011;43961;52.940;6.834;2023-04-03T14:56:57;3.35;;;2.35;;
57025;SDS011;43961;52.940;6.834;2023-04-03T14:59:26;5.85;;;3.30;;
57025;SDS011;43961;52.940;6.834;2023-04-03T15:01:53;7.13;;;3.10;;
57025;SDS011;43961;52.940;6.834;2023-04-03T15:04:19;4.53;;;3.63;;
57025;SDS011;43961;52.940;6.834;2023-04-03T15:06:46;12.38;;;3.70;;
57025;SDS011;43961;52.940;6.834;2023-04-03T15:09:20;6.28;;;2.97;;
57025;SDS011;43961;52.940;6.834;2023-04-03T15:11:48;5.82;;;2.83;;
57025;SDS011;43961;52.940;6.834;2023-04-03T15:14:15;3.72;;;2.67;;
57025;SDS011;43961;52.940;6.834;2023-04-03T15:16:41;6.47;;;3.10;;
57025;SDS011;43961;52.940;6.834;2023-04-03T15:19:07;8.27;;;3.42;;
57025;SDS011;43961;52.940;6.834;2023-04-03T15:21:33;5.53;;;2.97;;
57025;SDS011;43961;52.940;6.834;2023-04-03T15:23:58;7.00;;;3.03;;
57025;SDS011;43961;52.940;6.834;2023-04-03T15:26:24;4.18;;;3.17;;
57025;SDS011;43961;52.940;6.834;2023-04-03T15:28:50;6.45;;;3.00;;
57025;SDS011;43961;52.940;6.834;2023-04-03T15:31:16;7.32;;;3.28;;
57025;SDS011;43961;52.940;6.834;2023-04-03T15:33:42;7.05;;;2.65;;
57025;SDS011;43961;52.940;6.834;2023-04-03T15:36:07;4.40;;;2.17;;
57025;SDS011;43961;52.940;6.834;2023-04-03T15:38:33;4.40;;;3.15;;
57025;SDS011;43961;52.940;6.834;2023-04-03T15:40:59;3.72;;;2.50;;
57025;SDS011;43961;52.940;6.834;2023-04-03T15:43:25;4.95;;;2.50;;
57025;SDS011;43961;52.940;6.834;2023-04-03T15:45:52;5.68;;;2.63;;
57025;SDS011;43961;52.940;6.834;2023-04-03T15:48:23;6.05;;;2.92;;
57025;SDS011;43961;52.940;6.834;2023-04-03T15:50:48;4.05;;;2.78;;
57025;SDS011;43961;52.940;6.834;2023-04-03T15:53:15;4.78;;;2.95;;
57025;SDS011;43961;52.940;6.834;2023-04-03T15:55:41;5.50;;;3.03;;
57025;SDS011;43961;52.940;6.834;2023-04-03T15:58:07;3.78;;;2.55;;
57025;SDS011;43961;52.940;6.834;2023-04-03T16:00:33;6.22;;;3.50;;
57025;SDS011;43961;52.940;6.834;2023-04-03T16:03:04;5.88;;;2.78;;
57025;SDS011;43961;52.940;6.834;2023-04-03T16:05:35;2.97;;;2.58;;
57025;SDS011;43961;52.940;6.834;2023-04-03T16:08:02;5.55;;;2.97;;
57025;SDS011;43961;52.940;6.834;2023-04-03T16:10:28;4.68;;;2.42;;
57025;SDS011;43961;52.940;6.834;2023-04-03T16:12:54;7.93;;;2.45;;
57025;SDS011;43961;52.940;6.834;2023-04-03T16:15:21;5.20;;;2.97;;
57025;SDS011;43961;52.940;6.834;2023-04-03T16:17:47;3.17;;;2.65;;
57025;SDS011;43961;52.940;6.834;2023-04-03T16:20:13;5.85;;;3.25;;
57025;SDS011;43961;52.940;6.834;2023-04-03T16:22:40;5.38;;;2.78;;
57025;SDS011;43961;52.940;6.834;2023-04-03T16:25:06;7.68;;;2.97;;
57025;SDS011;43961;52.940;6.834;2023-04-03T16:27:33;7.05;;;3.45;;
57025;SDS011;43961;52.940;6.834;2023-04-03T16:29:59;8.82;;;3.22;;
57025;SDS011;43961;52.940;6.834;2023-04-03T16:32:25;3.15;;;2.67;;
57025;SDS011;43961;52.940;6.834;2023-04-03T16:34:54;3.22;;;2.80;;
57025;SDS011;43961;52.940;6.834;2023-04-03T16:37:20;3.88;;;3.10;;
57025;SDS011;43961;52.940;6.834;2023-04-03T16:39:46;7.22;;;3.28;;
57025;SDS011;43961;52.940;6.834;2023-04-03T16:42:12;15.23;;;3.15;;
57025;SDS011;43961;52.940;6.834;2023-04-03T16:44:38;5.80;;;2.97;;